Time;durP1;ratioP1;P1;durP2;ratioP2;P2;SDS_P1;SDS_P2;PMS_P1;PMS_P2;Temp;Humidity;BMP_temperature;BMP_pressure;BME280_temperature;BME280_humidity;BME280_pressure;Samples;Min_cycle;Max_cycle;Signal;HPM_P1;HPM_P2
2022/01/22 00:01:05;;;;;;;5.05;1.80;;;;;;;;;;5051057;28;20092;-67
2022/01/22 00:03:32;;;;;;;9.13;2.83;;;;;;;;;;5047649;28;20379;-67
2022/01/22 00:05:58;;;;;;;7.45;2.17;;;;;;;;;;5031503;28;20029;-65
2022/01/22 00:08:24;;;;;;;5.88;1.40;;;;;;;;;;5041656;28;20024;-66
2022/01/22 00:10:52;;;;;;;6.00;1.60;;;;;;;;;;5051231;28;20021;-66
2022/01/22 00:15:44;;;;;;;7.35;1.70;;;;;;;;;;5050911;28;20025;-67
2022/01/22 00:18:10;;;;;;;6.95;2.15;;;;;;;;;;5050872;28;20025;-66
2022/01/22 00:20:37;;;;;;;6.68;1.75;;;;;;;;;;5050204;28;20056;-67
2022/01/22 00:23:04;;;;;;;5.32;1.90;;;;;;;;;;5051227;28;20029;-67
2022/01/22 00:25:30;;;;;;;5.63;1.60;;;;;;;;;;5051190;28;20033;-66
2022/01/22 00:27:56;;;;;;;3.92;1.42;;;;;;;;;;5050813;28;20033;-66
2022/01/22 00:30:23;;;;;;;5.47;1.75;;;;;;;;;;5050825;28;20021;-66
2022/01/22 00:32:50;;;;;;;6.78;2.00;;;;;;;;;;5049527;28;20028;-66
2022/01/22 00:35:17;;;;;;;4.38;1.60;;;;;;;;;;5050765;28;20041;-65
2022/01/22 00:37:44;;;;;;;5.22;1.70;;;;;;;;;;5050032;28;20017;-66
2022/01/22 00:40:11;;;;;;;4.50;1.77;;;;;;;;;;5050766;28;20032;-67
2022/01/22 00:42:40;;;;;;;6.18;1.60;;;;;;;;;;5054568;28;20112;-67
2022/01/22 00:45:06;;;;;;;5.13;1.60;;;;;;;;;;5054711;28;20132;-66
2022/01/22 00:47:32;;;;;;;4.30;1.20;;;;;;;;;;5054747;28;20025;-66
2022/01/22 00:49:58;;;;;;;6.97;1.83;;;;;;;;;;5053478;28;20017;-66
2022/01/22 00:52:25;;;;;;;5.35;1.48;;;;;;;;;;5053450;28;20456;-65
2022/01/22 00:54:51;;;;;;;4.20;1.90;;;;;;;;;;5035132;28;20108;-66
2022/01/22 00:57:17;;;;;;;4.45;1.55;;;;;;;;;;5034803;28;20464;-66
2022/01/22 00:59:43;;;;;;;8.25;2.03;;;;;;;;;;5034436;28;20049;-66
2022/01/22 01:02:09;;;;;;;7.30;1.77;;;;;;;;;;5034340;28;20029;-67
2022/01/22 01:04:36;;;;;;;4.82;1.45;;;;;;;;;;5034399;28;20025;-67
2022/01/22 01:07:03;;;;;;;3.97;1.40;;;;;;;;;;5034073;28;20021;-66
2022/01/22 01:09:30;;;;;;;5.35;1.80;;;;;;;;;;5033889;28;20029;-66
2022/01/22 01:12:01;;;;;;;4.55;1.40;;;;;;;;;;5034739;28;20026;-66
2022/01/22 01:14:35;;;;;;;4.95;1.80;;;;;;;;;;5034309;28;20064;-67
2022/01/22 01:35:51;;;;;;;5.30;1.40;;;;;;;;;;5033449;28;20350;-65
2022/01/22 01:38:20;;;;;;;5.03;1.52;;;;;;;;;;5033835;28;20036;-66
2022/01/22 01:40:55;;;;;;;4.10;1.48;;;;;;;;;;5033739;28;20017;-67
2022/01/22 01:43:27;;;;;;;4.22;1.50;;;;;;;;;;5033845;28;20037;-66
2022/01/22 01:45:53;;;;;;;5.07;1.35;;;;;;;;;;5034232;28;20396;-66
2022/01/22 01:48:25;;;;;;;4.35;1.35;;;;;;;;;;5033148;28;20021;-63
2022/01/22 01:50:51;;;;;;;3.47;1.40;;;;;;;;;;5033105;28;20053;-66
2022/01/22 01:53:30;;;;;;;3.42;1.30;;;;;;;;;;5039492;28;20055;-65
2022/01/22 01:58:22;;;;;;;8.25;1.60;;;;;;;;;;5053514;28;20025;-65
2022/01/22 02:00:48;;;;;;;3.72;1.30;;;;;;;;;;5052231;28;20116;-67
2022/01/22 02:03:15;;;;;;;3.10;1.10;;;;;;;;;;5052682;28;20025;-66
2022/01/22 02:05:41;;;;;;;3.55;1.20;;;;;;;;;;5053131;28;20040;-65
2022/01/22 02:08:08;;;;;;;6.47;1.48;;;;;;;;;;5048474;28;20029;-67
2022/01/22 02:10:39;;;;;;;4.00;1.42;;;;;;;;;;5033150;28;20021;-65
2022/01/22 02:24:18;;;;;;;8.35;1.55;;;;;;;;;;5051666;28;20076;-63
2022/01/22 02:26:48;;;;;;;6.57;1.63;;;;;;;;;;5039092;28;20051;-65
2022/01/22 02:29:14;;;;;;;9.77;1.17;;;;;;;;;;5032537;28;20056;-67
2022/01/22 02:31:47;;;;;;;5.15;1.60;;;;;;;;;;5033064;28;20014;-66
2022/01/22 02:34:20;;;;;;;8.75;1.33;;;;;;;;;;5032838;28;20536;-66
2022/01/22 02:37:04;;;;;;;5.50;1.48;;;;;;;;;;5042928;28;20460;-64
2022/01/22 02:39:41;;;;;;;7.82;1.30;;;;;;;;;;5053000;28;20152;-65
2022/01/22 02:42:07;;;;;;;3.70;1.30;;;;;;;;;;5052417;28;20357;-65
2022/01/22 02:44:36;;;;;;;8.25;1.80;;;;;;;;;;5052464;28;20033;-68
2022/01/22 02:47:04;;;;;;;5.00;1.40;;;;;;;;;;5052412;28;20068;-67
2022/01/22 02:49:31;;;;;;;4.38;1.40;;;;;;;;;;5052493;28;20017;-66
2022/01/22 02:52:04;;;;;;;3.08;1.10;;;;;;;;;;5052634;28;20100;-66
2022/01/22 02:54:30;;;;;;;4.05;1.20;;;;;;;;;;5052446;28;20025;-67
2022/01/22 02:56:57;;;;;;;3.42;1.15;;;;;;;;;;5052500;28;20025;-66
2022/01/22 02:59:23;;;;;;;6.05;1.40;;;;;;;;;;5052333;28;20021;-67
2022/01/22 03:01:50;;;;;;;3.70;1.13;;;;;;;;;;5052362;28;20020;-66
2022/01/22 03:04:16;;;;;;;3.58;1.02;;;;;;;;;;5050641;28;20555;-66
2022/01/22 03:06:42;;;;;;;2.33;0.90;;;;;;;;;;5052322;28;20042;-66
2022/01/22 03:09:11;;;;;;;3.92;1.15;;;;;;;;;;5052565;28;20032;-65
2022/01/22 03:12:47;;;;;;;5.60;1.30;;;;;;;;;;5050989;28;20032;-65
2022/01/22 03:20:34;;;;;;;4.80;1.13;;;;;;;;;;5051863;28;20110;-65
2022/01/22 03:23:08;;;;;;;3.35;0.98;;;;;;;;;;5051707;28;20083;-65
2022/01/22 03:28:23;;;;;;;6.47;1.60;;;;;;;;;;5052308;28;20074;-66
2022/01/22 03:30:49;;;;;;;4.13;1.35;;;;;;;;;;5052272;28;20430;-65
2022/01/22 03:33:19;;;;;;;3.38;1.25;;;;;;;;;;5050851;28;20117;-65
2022/01/22 03:35:50;;;;;;;4.15;1.10;;;;;;;;;;5050791;28;20032;-65
2022/01/22 03:38:16;;;;;;;3.00;0.98;;;;;;;;;;5051916;28;20384;-65
2022/01/22 03:40:48;;;;;;;3.03;0.90;;;;;;;;;;5052016;28;20021;-65
2022/01/22 03:43:15;;;;;;;5.00;1.10;;;;;;;;;;5052151;28;20039;-65
2022/01/22 03:45:41;;;;;;;6.57;1.30;;;;;;;;;;5051675;28;20083;-65
2022/01/22 03:48:07;;;;;;;4.22;1.10;;;;;;;;;;5051474;28;20109;-66
2022/01/22 03:50:33;;;;;;;2.28;0.85;;;;;;;;;;5051678;28;20029;-66
2022/01/22 03:52:59;;;;;;;4.63;1.23;;;;;;;;;;5050621;28;20074;-65
2022/01/22 03:55:47;;;;;;;5.18;1.10;;;;;;;;;;5051479;28;20067;-65
2022/01/22 03:58:11;;;;;;;2.88;1.08;;;;;;;;;;5051194;28;20033;-65
2022/01/22 04:00:37;;;;;;;4.68;1.10;;;;;;;;;;5051276;28;20048;-67
2022/01/22 04:05:34;;;;;;;6.28;1.23;;;;;;;;;;5051132;28;20140;-65
2022/01/22 04:08:12;;;;;;;4.70;1.23;;;;;;;;;;5051208;28;20017;-66
2022/01/22 04:10:38;;;;;;;3.45;1.08;;;;;;;;;;5051271;28;20025;-65
2022/01/22 04:13:09;;;;;;;4.72;1.10;;;;;;;;;;5051134;28;20078;-63
2022/01/22 04:15:38;;;;;;;2.60;0.90;;;;;;;;;;5053282;28;20511;-65
2022/01/22 04:28:45;;;;;;;3.88;1.15;;;;;;;;;;5055089;28;20053;-61
2022/01/22 04:31:11;;;;;;;5.40;1.10;;;;;;;;;;5055107;28;20029;-65
2022/01/22 04:33:37;;;;;;;2.30;1.08;;;;;;;;;;5055076;28;20495;-66
2022/01/22 04:36:03;;;;;;;3.30;1.13;;;;;;;;;;5053622;28;20135;-65
2022/01/22 04:38:29;;;;;;;2.35;1.08;;;;;;;;;;5055005;28;20016;-65
2022/01/22 04:40:56;;;;;;;3.35;1.08;;;;;;;;;;5055077;28;20098;-65
2022/01/22 04:43:22;;;;;;;2.97;0.98;;;;;;;;;;5054843;28;20084;-65
2022/01/22 04:46:07;;;;;;;3.25;1.13;;;;;;;;;;5054845;28;20037;-64
2022/01/22 04:56:45;;;;;;;5.03;1.33;;;;;;;;;;5054715;28;20503;-65
2022/01/22 04:59:11;;;;;;;2.85;1.00;;;;;;;;;;5054345;28;20029;-64
2022/01/22 05:01:37;;;;;;;3.60;1.13;;;;;;;;;;5054459;28;20071;-65
2022/01/22 05:04:03;;;;;;;1.75;0.93;;;;;;;;;;5054315;28;20082;-66
2022/01/22 05:06:30;;;;;;;2.92;1.30;;;;;;;;;;5054448;28;20029;-65
2022/01/22 05:08:56;;;;;;;4.47;1.25;;;;;;;;;;5054627;28;20017;-66
2022/01/22 05:11:24;;;;;;;4.80;1.27;;;;;;;;;;5054469;28;20504;-66
2022/01/22 05:13:50;;;;;;;2.30;1.02;;;;;;;;;;5054497;28;20017;-66
2022/01/22 05:16:16;;;;;;;3.53;1.08;;;;;;;;;;5053237;28;20036;-66
2022/01/22 05:19:03;;;;;;;4.47;1.00;;;;;;;;;;5054361;28;20059;-66
2022/01/22 05:21:31;;;;;;;3.92;1.27;;;;;;;;;;5054425;28;20029;-66
2022/01/22 05:24:02;;;;;;;2.00;0.80;;;;;;;;;;5054208;28;20078;-66
2022/01/22 05:26:51;;;;;;;3.28;1.10;;;;;;;;;;5052948;28;20078;-66
2022/01/22 05:32:22;;;;;;;5.25;1.20;;;;;;;;;;5054018;28;20040;-65
2022/01/22 05:37:33;;;;;;;2.33;0.90;;;;;;;;;;5054230;28;20052;-66
2022/01/22 05:39:59;;;;;;;2.22;0.98;;;;;;;;;;5053804;28;20093;-64
2022/01/22 05:42:26;;;;;;;2.35;1.00;;;;;;;;;;5053547;28;20029;-65
2022/01/22 05:44:52;;;;;;;3.55;1.20;;;;;;;;;;5053458;28;20069;-64
2022/01/22 05:47:24;;;;;;;3.22;1.10;;;;;;;;;;5053566;28;20071;-65
2022/01/22 05:49:51;;;;;;;;;;;;;;;;;;5053733;28;20100;-65
2022/01/22 05:52:26;;;;;;;2.83;1.20;;;;;;;;;;5053465;28;19905;-64
2022/01/22 06:00:05;;;;;;;4.93;0.93;;;;;;;;;;5053174;28;20588;-65
2022/01/22 06:02:31;;;;;;;3.15;0.90;;;;;;;;;;5051686;28;20075;-65
2022/01/22 06:04:57;;;;;;;1.60;0.73;;;;;;;;;;5052822;28;20028;-65
2022/01/22 06:07:23;;;;;;;2.67;0.98;;;;;;;;;;5053357;28;20017;-66
2022/01/22 06:12:41;;;;;;;1.45;0.75;;;;;;;;;;5053567;28;20049;-66
2022/01/22 06:15:08;;;;;;;1.50;0.63;;;;;;;;;;5051667;28;20028;-67
2022/01/22 06:17:34;;;;;;;1.77;0.80;;;;;;;;;;5052877;28;20388;-66
2022/01/22 06:20:00;;;;;;;4.03;1.30;;;;;;;;;;5051291;28;20127;-67
2022/01/22 06:22:26;;;;;;;1.13;0.60;;;;;;;;;;5052846;28;20036;-67
2022/01/22 06:24:52;;;;;;;2.78;0.88;;;;;;;;;;5051661;28;20041;-67
2022/01/22 06:27:18;;;;;;;3.75;0.80;;;;;;;;;;5050995;28;20013;-66
2022/01/22 06:29:44;;;;;;;1.80;0.85;;;;;;;;;;5051324;28;20043;-67
2022/01/22 06:32:10;;;;;;;2.28;0.70;;;;;;;;;;5052534;28;20032;-66
2022/01/22 06:34:36;;;;;;;2.03;0.90;;;;;;;;;;5052294;28;20043;-65
2022/01/22 06:37:02;;;;;;;2.20;0.73;;;;;;;;;;5052262;28;20472;-65
2022/01/22 06:39:29;;;;;;;1.15;0.60;;;;;;;;;;5052016;28;20372;-65
2022/01/22 06:41:55;;;;;;;3.38;0.82;;;;;;;;;;5052274;28;20425;-64
2022/01/22 06:44:22;;;;;;;3.50;0.77;;;;;;;;;;5050819;28;20405;-65
2022/01/22 06:46:50;;;;;;;1.42;0.70;;;;;;;;;;5052274;28;20025;-64
2022/01/22 06:49:16;;;;;;;2.28;0.70;;;;;;;;;;5052200;28;20464;-65
2022/01/22 06:51:43;;;;;;;2.22;0.85;;;;;;;;;;5052185;28;20028;-65
2022/01/22 06:54:10;;;;;;;1.67;0.77;;;;;;;;;;5052242;28;20081;-65
2022/01/22 06:56:37;;;;;;;1.23;0.63;;;;;;;;;;5050917;28;20021;-66
2022/01/22 06:59:06;;;;;;;2.75;0.70;;;;;;;;;;5052032;28;20523;-64
2022/01/22 07:01:32;;;;;;;3.10;0.90;;;;;;;;;;5051774;28;20025;-66
2022/01/22 07:03:58;;;;;;;5.68;0.93;;;;;;;;;;5051825;28;20029;-66
2022/01/22 07:06:24;;;;;;;4.88;0.70;;;;;;;;;;5051846;28;20029;-66
2022/01/22 07:08:50;;;;;;;3.78;0.60;;;;;;;;;;5051959;28;20025;-66
2022/01/22 07:11:17;;;;;;;2.03;0.80;;;;;;;;;;5051792;28;20440;-67
2022/01/22 07:13:43;;;;;;;2.72;0.82;;;;;;;;;;5051875;28;20035;-65
2022/01/22 07:16:09;;;;;;;3.40;1.27;;;;;;;;;;5051726;28;20048;-66
2022/01/22 07:18:35;;;;;;;1.00;0.60;;;;;;;;;;5050369;28;20480;-67
2022/01/22 07:21:09;;;;;;;1.38;0.60;;;;;;;;;;5051782;28;20029;-68
2022/01/22 07:26:05;;;;;;;2.88;0.90;;;;;;;;;;5051572;28;20507;-66
2022/01/22 07:28:31;;;;;;;1.30;0.70;;;;;;;;;;5051834;28;20021;-66
2022/01/22 07:30:59;;;;;;;1.63;0.80;;;;;;;;;;5051624;28;20025;-65
2022/01/22 07:33:26;;;;;;;3.88;0.70;;;;;;;;;;5051565;28;20028;-66
2022/01/22 07:35:53;;;;;;;2.90;1.00;;;;;;;;;;5051525;28;20494;-66
2022/01/22 07:38:19;;;;;;;6.22;0.75;;;;;;;;;;5051660;28;20017;-66
2022/01/22 07:40:45;;;;;;;3.40;0.90;;;;;;;;;;5050153;28;20063;-64
2022/01/22 07:43:11;;;;;;;2.97;0.80;;;;;;;;;;5050158;28;20021;-65
2022/01/22 07:45:37;;;;;;;2.13;0.85;;;;;;;;;;5051289;28;20033;-65
2022/01/22 07:48:03;;;;;;;6.65;0.73;;;;;;;;;;5051289;28;20028;-65
2022/01/22 07:50:29;;;;;;;2.00;0.80;;;;;;;;;;5049247;28;20025;-66
2022/01/22 07:52:57;;;;;;;3.33;0.90;;;;;;;;;;5051304;28;20017;-65
2022/01/22 07:55:23;;;;;;;3.22;0.60;;;;;;;;;;5051296;28;20023;-64
2022/01/22 07:57:50;;;;;;;3.63;0.90;;;;;;;;;;5051241;28;20025;-65
2022/01/22 08:00:16;;;;;;;7.63;0.98;;;;;;;;;;5051110;28;20013;-65
2022/01/22 08:02:46;;;;;;;2.60;1.17;;;;;;;;;;5051259;28;20028;-66
2022/01/22 08:05:12;;;;;;;1.60;0.82;;;;;;;;;;5051472;28;20138;-65
2022/01/22 08:07:44;;;;;;;2.17;0.90;;;;;;;;;;5051629;28;20049;-65
2022/01/22 08:10:11;;;;;;;2.13;1.10;;;;;;;;;;5051670;28;20020;-63
2022/01/22 08:12:38;;;;;;;3.25;0.93;;;;;;;;;;5050120;28;20082;-65
2022/01/22 08:15:09;;;;;;;2.22;0.93;;;;;;;;;;5051599;28;20040;-66
2022/01/22 08:17:35;;;;;;;3.55;0.90;;;;;;;;;;5051684;28;20472;-65
2022/01/22 08:20:01;;;;;;;1.83;0.80;;;;;;;;;;5051562;28;20056;-64
2022/01/22 08:22:27;;;;;;;2.28;0.95;;;;;;;;;;5051055;28;20145;-66
2022/01/22 08:24:55;;;;;;;2.90;1.13;;;;;;;;;;5050908;28;20110;-64
2022/01/22 08:29:53;;;;;;;3.28;1.10;;;;;;;;;;5049954;28;20033;-65
2022/01/22 08:37:42;;;;;;;3.40;1.08;;;;;;;;;;5048845;28;20036;-66
2022/01/22 08:40:09;;;;;;;8.45;1.17;;;;;;;;;;5050535;28;20017;-66
2022/01/22 08:42:36;;;;;;;15.52;1.48;;;;;;;;;;5050580;28;20053;-66
2022/01/22 08:45:02;;;;;;;4.32;1.10;;;;;;;;;;5050623;28;20053;-67
2022/01/22 08:47:28;;;;;;;7.15;1.27;;;;;;;;;;5052139;28;20021;-68
2022/01/22 08:49:54;;;;;;;3.00;1.23;;;;;;;;;;5050605;28;20020;-67
2022/01/22 08:52:24;;;;;;;8.02;1.30;;;;;;;;;;5050688;28;20032;-69
2022/01/22 08:54:50;;;;;;;8.63;1.92;;;;;;;;;;5050761;28;20024;-67
2022/01/22 08:57:18;;;;;;;3.08;1.30;;;;;;;;;;5050620;28;20063;-67
2022/01/22 08:59:44;;;;;;;6.43;1.48;;;;;;;;;;5050758;28;20045;-67
2022/01/22 09:02:10;;;;;;;5.28;1.45;;;;;;;;;;5052164;28;20484;-67
2022/01/22 09:04:36;;;;;;;6.25;1.88;;;;;;;;;;5054292;28;20056;-67
2022/01/22 09:07:03;;;;;;;7.35;1.45;;;;;;;;;;5054437;28;20100;-67
2022/01/22 09:09:29;;;;;;;7.43;1.70;;;;;;;;;;5054370;28;20025;-67
2022/01/22 09:11:56;;;;;;;5.93;1.60;;;;;;;;;;5053890;28;20025;-68
2022/01/22 09:14:22;;;;;;;7.88;1.75;;;;;;;;;;5053785;28;20017;-67
2022/01/22 09:16:50;;;;;;;10.60;2.00;;;;;;;;;;5052848;28;20087;-67
2022/01/22 09:19:17;;;;;;;12.20;1.60;;;;;;;;;;5053441;28;20025;-67
2022/01/22 09:21:44;;;;;;;6.22;1.85;;;;;;;;;;5053621;28;20527;-62
2022/01/22 09:24:11;;;;;;;7.50;1.70;;;;;;;;;;5051811;28;20033;-64
2022/01/22 09:26:37;;;;;;;6.35;2.20;;;;;;;;;;5053446;28;20487;-65
2022/01/22 09:29:04;;;;;;;11.80;2.00;;;;;;;;;;5054018;28;20567;-66
2022/01/22 09:31:30;;;;;;;9.63;1.77;;;;;;;;;;5053373;28;20166;-65
2022/01/22 09:33:58;;;;;;;6.00;1.65;;;;;;;;;;5053341;28;20059;-65
2022/01/22 09:36:25;;;;;;;7.20;1.85;;;;;;;;;;5053139;28;20017;-65
2022/01/22 09:38:52;;;;;;;8.43;1.77;;;;;;;;;;5053104;28;20020;-65
2022/01/22 09:41:18;;;;;;;7.53;1.80;;;;;;;;;;5053464;28;20025;-65
2022/01/22 09:43:45;;;;;;;4.38;1.42;;;;;;;;;;5053231;28;20032;-65
2022/01/22 09:46:11;;;;;;;7.68;1.80;;;;;;;;;;5050300;28;20072;-66
2022/01/22 09:48:41;;;;;;;10.50;2.58;;;;;;;;;;5052771;28;20083;-65
2022/01/22 09:51:07;;;;;;;8.82;1.70;;;;;;;;;;5053086;28;20063;-62
2022/01/22 09:53:33;;;;;;;6.45;1.95;;;;;;;;;;5053382;28;20022;-66
2022/01/22 09:55:59;;;;;;;9.88;2.17;;;;;;;;;;5053200;28;20025;-67
2022/01/22 09:58:25;;;;;;;4.32;1.40;;;;;;;;;;5052517;28;20037;-67
2022/01/22 10:00:51;;;;;;;5.80;1.80;;;;;;;;;;5052561;28;20025;-66
2022/01/22 10:03:19;;;;;;;5.30;1.80;;;;;;;;;;5052553;28;20025;-68
2022/01/22 10:05:45;;;;;;;5.25;1.80;;;;;;;;;;5049487;28;20063;-67
2022/01/22 10:08:17;;;;;;;5.57;1.67;;;;;;;;;;5053090;28;20036;-67
2022/01/22 10:10:43;;;;;;;6.07;1.67;;;;;;;;;;5051423;28;20052;-67
2022/01/22 10:13:09;;;;;;;6.22;1.75;;;;;;;;;;5052214;28;20025;-68
2022/01/22 10:15:35;;;;;;;4.13;1.38;;;;;;;;;;5052961;28;20029;-66
2022/01/22 10:18:02;;;;;;;5.15;1.80;;;;;;;;;;5052860;28;20048;-69
2022/01/22 10:20:41;;;;;;;9.27;2.22;;;;;;;;;;5052562;28;20048;-68
2022/01/22 10:23:20;;;;;;;3.95;1.30;;;;;;;;;;5053079;28;20028;-68
2022/01/22 10:25:52;;;;;;;3.78;1.38;;;;;;;;;;5052905;28;20082;-66
2022/01/22 10:28:25;;;;;;;6.28;1.55;;;;;;;;;;5050887;28;20049;-69
2022/01/22 10:30:58;;;;;;;7.30;1.48;;;;;;;;;;5052357;28;20590;-66
2022/01/22 10:33:34;;;;;;;5.10;1.83;;;;;;;;;;5051587;28;20076;-67
2022/01/22 10:36:09;;;;;;;7.05;1.65;;;;;;;;;;5052109;28;20024;-67
2022/01/22 10:38:54;;;;;;;4.85;1.45;;;;;;;;;;5070467;28;20353;-64
2022/01/22 10:41:41;;;;;;;4.57;1.58;;;;;;;;;;5053459;28;20028;-64
2022/01/22 10:44:09;;;;;;;3.67;1.35;;;;;;;;;;5052171;28;20075;-66
2022/01/22 10:47:02;;;;;;;3.80;1.40;;;;;;;;;;5052215;28;20036;-65
2022/01/22 10:49:29;;;;;;;6.85;1.25;;;;;;;;;;5051009;28;20170;-66
2022/01/22 10:52:04;;;;;;;4.03;1.35;;;;;;;;;;5052105;28;20100;-64
2022/01/22 10:54:31;;;;;;;3.72;1.40;;;;;;;;;;5051870;28;20610;-65
2022/01/22 10:57:09;;;;;;;9.43;1.73;;;;;;;;;;5051746;28;20488;-64
2022/01/22 10:59:35;;;;;;;6.32;1.35;;;;;;;;;;5051719;28;20049;-64
2022/01/22 11:02:02;;;;;;;8.48;1.70;;;;;;;;;;5051798;28;20096;-65
2022/01/22 11:04:40;;;;;;;7.97;1.85;;;;;;;;;;5051750;28;20033;-64
2022/01/22 11:07:07;;;;;;;3.75;1.20;;;;;;;;;;5051028;28;20017;-66
2022/01/22 11:09:34;;;;;;;9.07;1.80;;;;;;;;;;5051512;28;20029;-63
2022/01/22 11:12:01;;;;;;;6.30;1.80;;;;;;;;;;5051673;28;20104;-64
2022/01/22 11:14:28;;;;;;;9.02;1.55;;;;;;;;;;5050980;28;20124;-67
2022/01/22 11:16:55;;;;;;;5.80;1.48;;;;;;;;;;5050932;28;20381;-68
2022/01/22 11:19:23;;;;;;;4.05;1.50;;;;;;;;;;5051121;28;20043;-63
2022/01/22 11:21:51;;;;;;;6.00;1.27;;;;;;;;;;5051364;28;20036;-63
2022/01/22 11:24:19;;;;;;;4.20;1.40;;;;;;;;;;5049066;28;20057;-65
2022/01/22 11:26:50;;;;;;;5.38;1.27;;;;;;;;;;5051543;28;20028;-65
2022/01/22 11:29:17;;;;;;;4.03;1.40;;;;;;;;;;5051636;28;20472;-63
2022/01/22 11:31:48;;;;;;;3.35;1.30;;;;;;;;;;5051513;28;20029;-63
2022/01/22 11:34:15;;;;;;;4.63;1.40;;;;;;;;;;5051555;28;20028;-65
2022/01/22 11:36:47;;;;;;;5.05;1.65;;;;;;;;;;5049929;28;20025;-67
2022/01/22 11:39:18;;;;;;;3.05;1.20;;;;;;;;;;5049027;28;20041;-67
2022/01/22 11:41:54;;;;;;;5.60;1.30;;;;;;;;;;5031331;28;20018;-64
2022/01/22 11:44:24;;;;;;;5.43;1.35;;;;;;;;;;5031231;28;20554;-65
2022/01/22 11:46:58;;;;;;;3.03;1.30;;;;;;;;;;5031402;28;20587;-66
2022/01/22 11:49:31;;;;;;;8.98;1.40;;;;;;;;;;5031260;28;20479;-66
2022/01/22 11:51:57;;;;;;;;;;;;;;;;;;5031783;28;20014;-66
2022/01/22 11:54:23;;;;;;;7.40;1.63;;;;;;;;;;5031112;28;20015;-63
2022/01/22 11:56:52;;;;;;;8.32;1.70;;;;;;;;;;5031317;28;20100;-67
2022/01/22 11:59:21;;;;;;;5.25;1.60;;;;;;;;;;5031541;28;20495;-68
2022/01/22 12:01:50;;;;;;;7.70;1.90;;;;;;;;;;5031786;28;20056;-67
2022/01/22 12:04:17;;;;;;;9.38;2.60;;;;;;;;;;5031346;28;20033;-65
2022/01/22 12:07:02;;;;;;;21.13;4.10;;;;;;;;;;5031545;28;20033;-68
2022/01/22 12:09:31;;;;;;;31.83;7.07;;;;;;;;;;5030551;28;20049;-68
2022/01/22 12:14:55;;;;;;;34.30;9.73;;;;;;;;;;5039330;28;20074;-67
2022/01/22 12:17:40;;;;;;;25.63;7.93;;;;;;;;;;5050397;28;20029;-67
2022/01/22 12:20:19;;;;;;;28.95;8.48;;;;;;;;;;5050535;28;20041;-69
2022/01/22 12:22:45;;;;;;;20.48;7.00;;;;;;;;;;5049378;28;20029;-68
2022/01/22 12:25:11;;;;;;;21.13;6.15;;;;;;;;;;5051191;28;20037;-68
2022/01/22 12:27:47;;;;;;;21.48;5.72;;;;;;;;;;5039636;28;20570;-67
2022/01/22 12:30:14;;;;;;;16.92;5.60;;;;;;;;;;5034914;28;20626;-68
2022/01/22 12:32:47;;;;;;;13.18;4.82;;;;;;;;;;5050544;28;20021;-67
2022/01/22 12:35:18;;;;;;;13.20;5.03;;;;;;;;;;5051344;28;20104;-64
2022/01/22 12:37:48;;;;;;;17.88;4.63;;;;;;;;;;5054909;28;20017;-67
2022/01/22 12:40:26;;;;;;;15.02;4.68;;;;;;;;;;5055029;28;20446;-70
2022/01/22 12:42:59;;;;;;;19.08;4.80;;;;;;;;;;5055092;28;20017;-67
2022/01/22 12:45:26;;;;;;;12.60;4.55;;;;;;;;;;5054303;28;20059;-66
2022/01/22 12:47:54;;;;;;;12.57;3.55;;;;;;;;;;5054195;28;20488;-66
2022/01/22 12:50:25;;;;;;;14.63;3.75;;;;;;;;;;5054110;28;20665;-68
2022/01/22 12:52:52;;;;;;;10.38;3.47;;;;;;;;;;5054060;28;20105;-69
2022/01/22 12:55:19;;;;;;;9.25;3.28;;;;;;;;;;5053906;28;20021;-65
2022/01/22 12:57:45;;;;;;;17.08;3.80;;;;;;;;;;5053184;28;20112;-67
2022/01/22 13:00:17;;;;;;;14.80;4.38;;;;;;;;;;5054136;28;20500;-67
2022/01/22 13:02:45;;;;;;;7.87;2.90;;;;;;;;;;5053577;28;20052;-66
2022/01/22 13:05:13;;;;;;;8.57;2.40;;;;;;;;;;5053711;28;20298;-67
2022/01/22 13:07:44;;;;;;;12.80;3.30;;;;;;;;;;5054022;28;20470;-63
2022/01/22 13:10:11;;;;;;;7.50;2.75;;;;;;;;;;5053842;28;20017;-67
2022/01/22 13:12:38;;;;;;;7.22;2.90;;;;;;;;;;5052388;28;20025;-64
2022/01/22 13:15:04;;;;;;;12.68;2.85;;;;;;;;;;5053717;28;20476;-63
2022/01/22 13:17:32;;;;;;;8.18;2.90;;;;;;;;;;5052409;28;20129;-63
2022/01/22 13:19:58;;;;;;;8.40;2.80;;;;;;;;;;5053600;28;20090;-64
2022/01/22 13:22:34;;;;;;;7.20;2.45;;;;;;;;;;5053825;28;20032;-68
2022/01/22 13:25:04;;;;;;;7.95;1.95;;;;;;;;;;5053687;28;20502;-70
2022/01/22 13:27:32;;;;;;;6.55;2.63;;;;;;;;;;5053756;28;20484;-65
2022/01/22 13:29:58;;;;;;;7.40;1.98;;;;;;;;;;5053123;28;20155;-65
2022/01/22 13:36:13;;;;;;;7.00;1.83;;;;;;;;;;5052876;28;20474;-69
2022/01/22 13:45:06;;;;;;;9.63;2.38;;;;;;;;;;5038483;28;20133;-69
2022/01/22 13:49:20;;;;;;;6.65;2.08;;;;;;;;;;5053784;28;20039;-67
2022/01/22 13:51:46;;;;;;;9.43;1.98;;;;;;;;;;5053822;28;20025;-69
2022/01/22 13:54:13;;;;;;;7.25;1.75;;;;;;;;;;5051782;28;20017;-70
2022/01/22 13:56:55;;;;;;;5.80;1.55;;;;;;;;;;5052711;28;20025;-67
2022/01/22 13:59:28;;;;;;;8.65;1.67;;;;;;;;;;5052364;28;20589;-67
2022/01/22 14:04:44;;;;;;;12.60;1.92;;;;;;;;;;5052431;28;20485;-66
2022/01/22 14:07:13;;;;;;;8.07;2.05;;;;;;;;;;5050140;28;20039;-65
2022/01/22 14:09:39;;;;;;;6.97;1.92;;;;;;;;;;5051591;28;20496;-69
2022/01/22 14:12:15;;;;;;;4.28;1.70;;;;;;;;;;5050667;28;20025;-69
2022/01/22 14:15:00;;;;;;;4.38;1.50;;;;;;;;;;5051864;28;20024;-67
2022/01/22 14:17:31;;;;;;;6.00;2.10;;;;;;;;;;5052767;28;20031;-67
2022/01/22 14:20:01;;;;;;;3.53;1.52;;;;;;;;;;5051094;28;20044;-66
2022/01/22 14:22:30;;;;;;;6.15;1.25;;;;;;;;;;5052639;28;20591;-69
2022/01/22 14:25:09;;;;;;;8.70;1.63;;;;;;;;;;5052549;28;20033;-69
2022/01/22 14:27:35;;;;;;;3.20;1.58;;;;;;;;;;5050441;28;20033;-69
2022/01/22 14:30:02;;;;;;;2.75;1.35;;;;;;;;;;5050961;28;20053;-70
2022/01/22 14:32:29;;;;;;;4.63;1.73;;;;;;;;;;5051137;28;20052;-68
2022/01/22 14:34:55;;;;;;;6.82;1.90;;;;;;;;;;5052009;28;20087;-67
2022/01/22 14:37:27;;;;;;;4.15;1.77;;;;;;;;;;5051369;28;20021;-69
2022/01/22 14:45:22;;;;;;;4.88;1.63;;;;;;;;;;5052404;28;20063;-66
2022/01/22 14:47:57;;;;;;;3.30;1.40;;;;;;;;;;5051225;28;20527;-68
2022/01/22 14:50:24;;;;;;;5.15;1.48;;;;;;;;;;5052237;28;20135;-69
2022/01/22 14:52:56;;;;;;;3.60;1.48;;;;;;;;;;5052519;28;20016;-69
2022/01/22 14:55:23;;;;;;;4.43;1.60;;;;;;;;;;5052289;28;20021;-68
2022/01/22 14:57:49;;;;;;;3.83;1.70;;;;;;;;;;5052110;28;20074;-68
2022/01/22 15:00:17;;;;;;;3.55;1.67;;;;;;;;;;5051910;28;20032;-70
2022/01/22 15:02:43;;;;;;;4.05;1.65;;;;;;;;;;5051981;28;20009;-64
2022/01/22 15:05:12;;;;;;;3.25;1.38;;;;;;;;;;5051953;28;20033;-68
2022/01/22 15:07:39;;;;;;;4.28;1.50;;;;;;;;;;5051976;28;20108;-69
2022/01/22 15:10:06;;;;;;;3.75;1.48;;;;;;;;;;5051929;28;20017;-67
2022/01/22 15:12:33;;;;;;;4.50;1.50;;;;;;;;;;5050530;28;20021;-67
2022/01/22 15:14:59;;;;;;;3.70;1.45;;;;;;;;;;5051875;28;20049;-69
2022/01/22 15:17:30;;;;;;;3.63;1.50;;;;;;;;;;5050411;28;20462;-65
2022/01/22 15:19:56;;;;;;;7.80;1.63;;;;;;;;;;5051657;28;20040;-64
2022/01/22 15:22:22;;;;;;;3.85;1.60;;;;;;;;;;5050416;28;20057;-65
2022/01/22 15:24:51;;;;;;;4.35;1.63;;;;;;;;;;5051543;28;20044;-64
2022/01/22 15:27:18;;;;;;;4.38;1.80;;;;;;;;;;5051558;28;20028;-65
2022/01/22 15:32:39;;;;;;;3.88;1.60;;;;;;;;;;5051774;28;20373;-67
2022/01/22 15:35:06;;;;;;;5.00;2.20;;;;;;;;;;5051566;28;20091;-66
2022/01/22 15:37:33;;;;;;;4.72;1.60;;;;;;;;;;5051632;28;20056;-68
2022/01/22 15:39:59;;;;;;;3.85;1.67;;;;;;;;;;5050158;28;20060;-67
2022/01/22 15:42:25;;;;;;;4.43;1.70;;;;;;;;;;5051275;28;20021;-70
2022/01/22 15:44:51;;;;;;;3.35;1.50;;;;;;;;;;5051237;28;20033;-66
2022/01/22 15:47:18;;;;;;;4.65;1.65;;;;;;;;;;5051305;28;20074;-65
2022/01/22 15:49:46;;;;;;;4.63;2.10;;;;;;;;;;5051325;28;20492;-66
2022/01/22 15:52:12;;;;;;;3.35;1.70;;;;;;;;;;5051304;28;20072;-69
2022/01/22 15:54:41;;;;;;;4.07;1.42;;;;;;;;;;5051140;28;20025;-67
2022/01/22 15:57:09;;;;;;;4.07;1.98;;;;;;;;;;5051084;28;20021;-68
2022/01/22 15:59:35;;;;;;;4.82;1.98;;;;;;;;;;5051105;28;20017;-70
2022/01/22 16:02:01;;;;;;;3.88;1.80;;;;;;;;;;5050947;28;20074;-66
2022/01/22 16:04:27;;;;;;;3.45;1.70;;;;;;;;;;5050793;28;20486;-70
2022/01/22 16:09:20;;;;;;;4.30;1.83;;;;;;;;;;5051116;28;20021;-69
2022/01/22 16:11:47;;;;;;;3.95;1.63;;;;;;;;;;5053680;28;20025;-68
2022/01/22 16:14:14;;;;;;;4.47;1.85;;;;;;;;;;5055200;28;20028;-69
2022/01/22 16:16:41;;;;;;;3.00;1.60;;;;;;;;;;5055192;28;20117;-69
2022/01/22 16:19:08;;;;;;;5.18;2.10;;;;;;;;;;5054836;28;20500;-67
2022/01/22 16:21:34;;;;;;;4.32;1.90;;;;;;;;;;5055128;28;20033;-70
2022/01/22 16:24:01;;;;;;;4.78;1.77;;;;;;;;;;5054944;28;20049;-65
2022/01/22 16:26:27;;;;;;;4.05;1.80;;;;;;;;;;5054756;28;20032;-67
2022/01/22 16:28:53;;;;;;;4.22;1.90;;;;;;;;;;5054737;28;20021;-69
2022/01/22 16:31:20;;;;;;;4.80;2.00;;;;;;;;;;5054803;28;20061;-68
2022/01/22 16:33:46;;;;;;;9.50;2.15;;;;;;;;;;5054057;28;20522;-69
2022/01/22 16:36:12;;;;;;;13.05;3.05;;;;;;;;;;5051809;28;20056;-67
2022/01/22 16:38:40;;;;;;;24.13;3.58;;;;;;;;;;5052770;28;20080;-69
2022/01/22 16:41:06;;;;;;;15.60;3.00;;;;;;;;;;5054605;28;20023;-67
2022/01/22 16:43:35;;;;;;;13.57;2.45;;;;;;;;;;5054378;28;20021;-65
2022/01/22 16:51:59;;;;;;;16.90;3.13;;;;;;;;;;5054620;28;20127;-67
2022/01/22 16:57:13;;;;;;;22.63;3.90;;;;;;;;;;5055115;28;20040;-68